Hauptseite
METAR-TAF:

METAR-TAF

Flughäfen :

Flughafen Dakar-Léopold Sédar Senghor

Dakar, Senegal

Breite: 14-44N, Länge: 017-30W, Höhe: 27 m

Beobachtung

Neuester Wetterbericht von vor 1 Stunde und 40 Minuten, um 03:00 UTC
Wind 8 kt aus Nord
Temperatur 19°C
Luftfeuchtigkeit 88%
Luftdruck 1013 hPa
Sichtweite: 7000 m
verbreitet Staub

METAR: GOOY 210300Z 36008KT 7000 DU NSC 19/17 Q1013

Zeit: 04:40 (04:40 UTC)

Prognose

Neuester Wetterbericht von vor 5 Stunden und 10 Minuten, um 23:30 UTC
Gültige Prognose vom 21 um 00 UTC bis 22 um 06 UTC
Wind 10 kt aus Nord/Nordost
Sichtweite: 7000 m

TAF: GOOY 202330Z 2100/2206 02010KT 7000 NSC

Wetterbeobachtungen und Prognosen von mehr als 4000 Flughäfen (METAR und TAF Bericht).

Die verfügbaren Stationen werden durch gelbe und rote Markierungen auf der Karte dargestellt.

Führen Sie die Maus auf sie, um den Namen der Station zu sehen.

Darauf klicken, um die Beobachtung von Wetterbeobachtungen und Prognosen zu sehen.

Um die Karte zu ändern : klicken Sie auf den grünen Tasten mit einem schwarzen Kreuz Zum Vergrößern, auf den grünen Button mit einem Gedankenstrich zu verkleinern, oder auf die grünen Pfeile für benachbarte Karten.


METAR-TAF: